Time;durP1;ratioP1;P1;durP2;ratioP2;P2;SDS_P1;SDS_P2;PMS_P1;PMS_P2;Temp;Humidity;BMP_temperature;BMP_pressure;BME280_temperature;BME280_humidity;BME280_pressure;Samples;Min_cycle;Max_cycle;Signal;HPM_P1;HPM_P2
2021/08/05 00:08:28;;;;;;;13.10;9.27;;;14.60;99.90;;;;;;20846818;28;20549;-78
2021/08/05 00:18:29;;;;;;;15.60;8.97;;;14.50;99.90;;;;;;20830417;28;20042;-77
2021/08/05 00:28:31;;;;;;;;;;;14.50;99.90;;;;;;20850374;28;20037;-78
2021/08/05 00:38:32;;;;;;;15.57;8.05;;;14.40;99.90;;;;;;20861331;28;19977;-79
2021/08/05 00:48:34;;;;;;;18.05;9.27;;;14.40;99.90;;;;;;20828953;28;20030;-79
2021/08/05 00:58:35;;;;;;;12.43;8.43;;;14.30;99.90;;;;;;20844724;28;20103;-77
2021/08/05 01:08:41;;;;;;;17.20;9.07;;;14.30;99.90;;;;;;20861911;28;20040;-77
2021/08/05 01:18:45;;;;;;;19.17;8.88;;;14.10;99.90;;;;;;20858443;28;20057;-79
2021/08/05 01:28:48;;;;;;;12.73;7.38;;;14.20;99.90;;;;;;20840787;28;20120;-78
2021/08/05 01:38:50;;;;;;;13.18;8.45;;;14.30;99.90;;;;;;20839344;28;20026;-78
2021/08/05 01:48:54;;;;;;;20.25;9.02;;;14.30;99.90;;;;;;20839139;28;20037;-78
2021/08/05 01:58:57;;;;;;;12.52;7.60;;;14.30;99.90;;;;;;20837889;28;20060;-78
2021/08/05 02:09:12;;;;;;;12.15;8.30;;;14.40;99.90;;;;;;20841674;28;20091;-79
2021/08/05 02:19:15;;;;;;;16.10;9.05;;;14.40;99.90;;;;;;20825158;28;20034;-78
2021/08/05 02:29:18;;;;;;;9.25;7.13;;;14.40;99.90;;;;;;20839833;28;20029;-78
2021/08/05 02:39:20;;;;;;;18.95;8.02;;;14.40;99.90;;;;;;20839316;28;20033;-80
2021/08/05 02:49:22;;;;;;;28.63;13.15;;;14.40;99.90;;;;;;20858663;28;20057;-79
2021/08/05 02:59:26;;;;;;;21.85;12.25;;;14.30;99.90;;;;;;20835805;28;20045;-78
2021/08/05 03:09:27;;;;;;;21.90;12.27;;;14.30;99.90;;;;;;20822489;28;20029;-78
2021/08/05 03:19:28;;;;;;;20.17;11.57;;;14.30;99.90;;;;;;20846091;28;20079;-79
2021/08/05 03:29:29;;;;;;;22.90;9.77;;;14.30;99.90;;;;;;20844110;28;20029;-79
2021/08/05 03:39:30;;;;;;;25.23;12.57;;;14.30;99.90;;;;;;20854152;28;20029;-79
2021/08/05 03:49:31;;;;;;;32.87;13.50;;;14.00;99.90;;;;;;20835215;28;20033;-78
2021/08/05 03:59:32;;;;;;;43.80;12.60;;;14.00;99.90;;;;;;20836744;28;20037;-78
2021/08/05 04:09:33;;;;;;;39.80;14.17;;;14.00;99.90;;;;;;20853318;28;20037;-79
2021/08/05 04:19:34;;;;;;;30.30;14.10;;;14.00;99.90;;;;;;20817759;28;20040;-78
2021/08/05 04:29:35;;;;;;;32.37;13.90;;;13.90;99.90;;;;;;20832429;28;20056;-79
2021/08/05 04:39:36;;;;;;;33.47;14.23;;;13.90;99.90;;;;;;20848334;28;20031;-80
2021/08/05 04:49:37;;;;;;;;;;;13.90;99.90;;;;;;20852060;28;20040;-78
2021/08/05 04:59:38;;;;;;;39.43;16.33;;;13.90;99.90;;;;;;20832480;28;19976;-77
2021/08/05 05:09:39;;;;;;;46.70;16.73;;;14.00;99.90;;;;;;20849312;28;20085;-79
2021/08/05 05:19:40;;;;;;;30.47;14.20;;;14.00;99.90;;;;;;20853791;28;20033;-79
2021/08/05 05:29:40;;;;;;;33.33;13.53;;;14.10;99.90;;;;;;20845889;28;20039;-78
2021/08/05 05:39:41;;;;;;;27.60;12.90;;;14.20;99.90;;;;;;20863825;28;20025;-79
2021/08/05 05:49:42;;;;;;;32.60;15.17;;;14.30;99.90;;;;;;20845015;28;20047;-79
2021/08/05 05:59:43;;;;;;;21.90;10.63;;;14.30;99.90;;;;;;20843388;28;20037;-79
2021/08/05 06:09:44;;;;;;;15.77;7.67;;;14.60;99.90;;;;;;20842946;28;20036;-78
2021/08/05 06:19:45;;;;;;;5.27;3.87;;;14.70;99.90;;;;;;20841351;28;20041;-79
2021/08/05 06:29:45;;;;;;;4.77;3.20;;;14.60;99.90;;;;;;20839740;28;20034;-80
2021/08/05 06:39:46;;;;;;;5.37;3.37;;;15.00;99.90;;;;;;20838889;28;20044;-80
2021/08/05 06:49:47;;;;;;;8.20;4.30;;;15.20;99.90;;;;;;20837453;28;20065;-78
2021/08/05 06:59:48;;;;;;;12.90;5.20;;;15.40;99.90;;;;;;20837796;28;20037;-78
2021/08/05 07:09:49;;;;;;;9.53;5.13;;;15.90;99.90;;;;;;20819821;28;20033;-80
2021/08/05 07:19:50;;;;;;;9.00;5.60;;;16.30;99.90;;;;;;20852307;28;20030;-80
2021/08/05 07:29:51;;;;;;;8.82;5.32;;;16.40;99.90;;;;;;20831226;28;20045;-78
2021/08/05 07:39:52;;;;;;;5.10;3.63;;;17.00;99.90;;;;;;20847162;28;20029;-80
2021/08/05 07:49:53;;;;;;;8.33;4.40;;;17.00;99.90;;;;;;20829011;28;20034;-77
2021/08/05 07:59:54;;;;;;;6.77;4.53;;;17.40;99.90;;;;;;20848562;28;20029;-77
2021/08/05 08:09:54;;;;;;;6.97;4.00;;;17.80;99.90;;;;;;20851850;28;20567;-77
2021/08/05 08:19:55;;;;;;;10.23;4.80;;;18.10;99.90;;;;;;20850948;28;20030;-79
2021/08/05 08:29:56;;;;;;;4.40;2.63;;;18.60;99.90;;;;;;20852998;28;20025;-79
2021/08/05 08:39:57;;;;;;;4.87;4.00;;;17.90;99.90;;;;;;20851470;28;20041;-78
2021/08/05 08:49:59;;;;;;;4.77;3.67;;;18.30;99.90;;;;;;20832852;28;20030;-79
2021/08/05 09:00:06;;;;;;;6.32;3.70;;;18.70;99.90;;;;;;20864695;28;20038;-78
2021/08/05 09:10:07;;;;;;;4.70;1.90;;;20.30;99.90;;;;;;20864831;28;20052;-77
2021/08/05 09:20:11;;;;;;;2.88;1.77;;;21.20;99.90;;;;;;20862879;28;20041;-78
2021/08/05 09:30:25;;;;;;;5.35;2.10;;;20.60;99.90;;;;;;20860225;28;20036;-78
2021/08/05 09:40:30;;;;;;;4.97;1.70;;;20.80;99.90;;;;;;20860891;28;20033;-78
2021/08/05 09:50:31;;;;;;;4.53;1.30;;;22.10;99.90;;;;;;20860119;28;20037;-77
2021/08/05 10:00:43;;;;;;;1.70;0.95;;;23.60;99.90;;;;;;20840250;28;20038;-76
2021/08/05 10:10:52;;;;;;;2.17;1.17;;;23.00;99.90;;;;;;20857631;28;20055;-78
2021/08/05 10:20:54;;;;;;;1.73;1.00;;;23.20;99.90;;;;;;20822959;28;20052;-79
2021/08/05 10:30:58;;;;;;;5.68;1.13;;;24.30;99.90;;;;;;20860321;28;20089;-78
2021/08/05 10:41:01;;;;;;;1.00;0.90;;;21.50;99.90;;;;;;20856764;28;20029;-78
2021/08/05 10:51:02;;;;;;;0.95;0.85;;;22.00;99.90;;;;;;20838476;28;20481;-76
2021/08/05 11:01:04;;;;;;;1.00;0.80;;;24.30;99.90;;;;;;20820167;28;20103;-77
2021/08/05 11:11:21;;;;;;;1.65;1.08;;;23.80;99.90;;;;;;20852345;28;20060;-79
2021/08/05 11:21:21;;;;;;;1.40;0.90;;;23.70;99.90;;;;;;20846901;28;20108;-77
2021/08/05 11:31:22;;;;;;;1.53;1.10;;;23.10;99.90;;;;;;20850217;28;20103;-78
2021/08/05 11:41:51;;;;;;;2.50;1.17;;;21.10;99.90;;;;;;20849889;28;20037;-80
2021/08/05 11:51:52;;;;;;;2.75;1.40;;;20.00;99.90;;;;;;20834333;28;20037;-79
2021/08/05 12:02:06;;;;;;;2.03;1.57;;;19.60;99.90;;;;;;20845814;28;20030;-79
2021/08/05 12:12:07;;;;;;;5.70;2.20;;;18.90;99.90;;;;;;20841279;28;20128;-77
2021/08/05 12:22:08;;;;;;;3.97;1.97;;;18.30;99.90;;;;;;20853902;28;20030;-80
2021/08/05 12:32:09;;;;;;;2.83;2.10;;;18.60;99.90;;;;;;20845316;28;20032;-78
2021/08/05 12:42:11;;;;;;;7.07;3.27;;;19.00;99.90;;;;;;20849744;28;20040;-80
2021/08/05 12:52:15;;;;;;;;;;;19.30;99.90;;;;;;20848772;28;20038;-79
2021/08/05 13:02:17;;;;;;;11.45;2.63;;;19.30;99.90;;;;;;20831956;28;19915;-77
2021/08/05 13:12:27;;;;;;;3.47;2.30;;;18.50;99.90;;;;;;20830257;28;20033;-77
2021/08/05 13:22:39;;;;;;;1.45;0.95;;;18.30;99.90;;;;;;20863866;28;20037;-77
2021/08/05 13:32:51;;;;;;;1.35;1.25;;;18.10;99.90;;;;;;20835789;28;20069;-78
2021/08/05 13:42:52;;;;;;;3.85;1.60;;;18.50;99.90;;;;;;20839627;28;20572;-79
2021/08/05 13:53:03;;;;;;;3.70;1.90;;;18.60;99.90;;;;;;20864593;28;20037;-79
2021/08/05 14:03:04;;;;;;;2.80;1.40;;;19.00;99.90;;;;;;20906355;28;20071;-76
2021/08/05 14:13:05;;;;;;;2.20;1.30;;;19.80;99.90;;;;;;20921912;28;20032;-78
2021/08/05 14:23:06;;;;;;;1.60;1.10;;;20.00;99.90;;;;;;20855828;28;20120;-78
2021/08/05 14:33:07;;;;;;;3.77;1.47;;;19.80;99.90;;;;;;20821370;28;20099;-76
2021/08/05 14:43:08;;;;;;;3.10;1.30;;;20.00;99.90;;;;;;20815937;28;20128;-77
2021/08/05 14:53:09;;;;;;;1.33;1.20;;;20.10;99.90;;;;;;20831285;28;20030;-77
2021/08/05 15:03:10;;;;;;;;;;;20.80;99.90;;;;;;20846792;28;20072;-77
2021/08/05 15:13:11;;;;;;;2.23;0.90;;;21.00;99.90;;;;;;20813603;28;19916;-78
2021/08/05 15:23:13;;;;;;;1.10;0.70;;;21.00;99.90;;;;;;20832251;28;20757;-77
2021/08/05 15:33:14;;;;;;;1.35;0.50;;;21.90;99.90;;;;;;20813930;28;20033;-79
2021/08/05 15:43:15;;;;;;;1.10;0.60;;;22.00;99.90;;;;;;20801411;28;20773;-79
2021/08/05 15:53:16;;;;;;;1.73;0.60;;;21.50;99.90;;;;;;20817474;28;20033;-80
2021/08/05 16:03:17;;;;;;;1.13;0.80;;;21.40;99.90;;;;;;20843023;28;20218;-80
2021/08/05 16:13:19;;;;;;;0.77;0.60;;;22.00;99.90;;;;;;20815164;28;20057;-80
2021/08/05 16:23:20;;;;;;;1.50;0.50;;;21.30;99.90;;;;;;20813235;28;20029;-78
2021/08/05 16:33:21;;;;;;;1.90;0.63;;;21.10;99.90;;;;;;20830595;28;20040;-79
2021/08/05 16:43:22;;;;;;;2.80;0.60;;;21.10;99.90;;;;;;20803327;28;20048;-80
2021/08/05 16:53:23;;;;;;;2.20;0.90;;;21.20;99.90;;;;;;20791615;28;20037;-80
2021/08/05 17:03:24;;;;;;;;;;;21.00;99.90;;;;;;20808531;28;20084;-79
2021/08/05 17:13:25;;;;;;;1.15;0.50;;;20.60;99.90;;;;;;20806274;28;19967;-79
2021/08/05 17:23:26;;;;;;;0.53;0.53;;;20.60;99.90;;;;;;20842028;28;20047;-80
2021/08/05 17:33:27;;;;;;;2.33;1.00;;;20.20;99.90;;;;;;20810413;28;20030;-81
2021/08/05 17:43:28;;;;;;;5.23;1.30;;;19.90;99.90;;;;;;20842845;28;20038;-81
2021/08/05 17:53:29;;;;;;;1.00;0.57;;;19.90;99.90;;;;;;20821005;28;20037;-80
2021/08/05 18:03:30;;;;;;;3.07;0.73;;;19.50;99.90;;;;;;20838433;28;20030;-80
2021/08/05 18:13:31;;;;;;;3.47;0.50;;;19.60;99.90;;;;;;20840976;28;20030;-79
2021/08/05 18:23:33;;;;;;;14.83;4.27;;;19.40;99.90;;;;;;20824689;28;20061;-79
2021/08/05 18:33:35;;;;;;;4.38;0.43;;;19.30;99.90;;;;;;20838021;28;20042;-80
2021/08/05 18:43:37;;;;;;;0.57;0.40;;;19.00;99.90;;;;;;20819697;28;20112;-79
2021/08/05 18:53:38;;;;;;;0.40;0.40;;;18.90;99.90;;;;;;20837142;28;20295;-78
2021/08/05 19:03:39;;;;;;;3.08;0.30;;;18.50;99.90;;;;;;20835561;28;20040;-79
2021/08/05 19:13:40;;;;;;;1.13;0.40;;;18.30;99.90;;;;;;20859550;28;20026;-80
2021/08/05 19:23:41;;;;;;;0.50;0.30;;;18.00;99.90;;;;;;20884436;28;20040;-79
2021/08/05 19:33:42;;;;;;;0.57;0.30;;;17.80;99.90;;;;;;20819078;28;20060;-80
2021/08/05 19:43:42;;;;;;;1.20;0.40;;;17.30;99.90;;;;;;20802884;28;20064;-79
2021/08/05 19:53:43;;;;;;;1.03;0.40;;;16.80;99.90;;;;;;20898286;28;20021;-79
2021/08/05 20:03:44;;;;;;;3.40;0.70;;;16.10;99.90;;;;;;20897815;28;20486;-79
2021/08/05 20:13:45;;;;;;;6.50;1.77;;;15.70;99.90;;;;;;20891576;28;20083;-78
2021/08/05 20:23:47;;;;;;;7.45;2.50;;;15.50;99.90;;;;;;20851409;28;20056;-79
2021/08/05 20:33:48;;;;;;;4.30;2.43;;;15.10;99.90;;;;;;20831652;28;20061;-78
2021/08/05 20:43:49;;;;;;;5.67;2.60;;;15.30;99.90;;;;;;20828039;28;20040;-80
2021/08/05 20:53:50;;;;;;;4.40;2.40;;;15.10;99.90;;;;;;20858130;28;20029;-80
2021/08/05 21:03:51;;;;;;;4.50;2.40;;;15.20;99.90;;;;;;20868254;28;20053;-78
2021/08/05 21:13:53;;;;;;;9.47;2.80;;;14.90;99.90;;;;;;20857419;28;20108;-78
2021/08/05 21:23:54;;;;;;;9.48;3.20;;;14.80;99.90;;;;;;20817233;28;20446;-76
2021/08/05 21:33:55;;;;;;;5.13;2.77;;;14.70;99.90;;;;;;20845361;28;20468;-79
2021/08/05 21:43:56;;;;;;;6.10;2.40;;;14.50;99.90;;;;;;20863774;28;20461;-79
2021/08/05 21:53:57;;;;;;;4.70;2.03;;;14.40;99.90;;;;;;20840063;28;20445;-77
2021/08/05 22:03:58;;;;;;;4.03;1.90;;;14.20;99.90;;;;;;20853675;28;20034;-78
2021/08/05 22:13:59;;;;;;;5.73;1.50;;;14.10;99.90;;;;;;20792570;28;20044;-78
2021/08/05 22:24:00;;;;;;;7.30;2.10;;;13.70;99.90;;;;;;20842972;28;20402;-79
2021/08/05 22:34:00;;;;;;;3.83;1.40;;;13.60;99.90;;;;;;20843750;28;20033;-78
2021/08/05 22:44:02;;;;;;;2.00;1.50;;;13.50;99.90;;;;;;20860368;28;20523;-79
2021/08/05 22:54:03;;;;;;;10.93;1.30;;;13.50;99.90;;;;;;20863571;28;20040;-79
2021/08/05 23:04:04;;;;;;;3.83;1.20;;;13.60;99.90;;;;;;20837332;28;20033;-80
2021/08/05 23:14:05;;;;;;;1.93;1.40;;;13.30;99.90;;;;;;20852279;28;20030;-81
2021/08/05 23:24:06;;;;;;;6.10;1.10;;;13.40;99.90;;;;;;20851159;28;20037;-79
2021/08/05 23:34:06;;;;;;;5.80;1.33;;;13.30;99.90;;;;;;20817409;28;20163;-79
2021/08/05 23:44:07;;;;;;;6.67;2.43;;;13.40;99.90;;;;;;20831249;28;20025;-80
2021/08/05 23:54:09;;;;;;;8.17;0.93;;;13.70;99.90;;;;;;20830049;28;20037;-81
